Time;durP1;ratioP1;P1;durP2;ratioP2;P2;SDS_P1;SDS_P2;PMS_P1;PMS_P2;Temp;Humidity;BMP_temperature;BMP_pressure;BME280_temperature;BME280_humidity;BME280_pressure;Samples;Min_cycle;Max_cycle;Signal;HPM_P1;HPM_P2
2022/01/17 12:19:08;;;;;;;14.95;1.90;;;;;;;23.04;53.87;99718.94;7310022;19;153980;-38
2022/01/17 12:21:35;;;;;;;13.70;1.58;;;;;;;23.10;53.83;99734.13;7312647;19;131225;-41
2022/01/17 12:24:25;;;;;;;;;;;;;;;23.07;53.30;99723.09;7305809;19;130792;-40
2022/01/17 12:26:53;;;;;;;19.05;2.08;;;;;;;23.05;53.09;99735.53;7311312;19;129224;-39
2022/01/17 12:29:56;;;;;;;23.15;2.63;;;;;;;23.11;53.05;99719.19;7309885;19;154285;-40
2022/01/17 12:32:24;;;;;;;23.63;2.88;;;;;;;23.17;52.84;99714.19;7310218;19;130035;-39
2022/01/17 12:34:52;;;;;;;18.02;2.05;;;;;;;23.15;53.21;99716.13;7307392;19;158519;-40
2022/01/17 12:37:41;;;;;;;16.50;2.00;;;;;;;23.06;53.45;99721.41;7311882;19;129505;-40
2022/01/17 12:40:10;;;;;;;15.45;1.92;;;;;;;23.01;53.29;99718.41;7311935;19;129537;-39
2022/01/17 12:42:54;;;;;;;20.75;2.55;;;;;;;23.04;53.87;99718.94;7310815;19;131704;-40
2022/01/17 12:45:25;;;;;;;17.17;2.15;;;;;;;23.10;53.67;99722.78;7311260;19;129248;-39
2022/01/17 12:47:51;;;;;;;17.35;2.00;;;;;;;23.07;54.09;99738.81;7311030;19;128995;-40
2022/01/17 12:50:18;;;;;;;18.23;2.10;;;;;;;23.11;53.95;99782.13;7311571;19;129211;-39
2022/01/17 12:52:44;;;;;;;23.65;2.60;;;;;;;23.18;53.60;99869.78;7310643;19;129437;-40
2022/01/17 12:55:10;;;;;;;10.52;1.58;;;;;;;23.14;53.20;99871.84;7307143;19;129158;-39
2022/01/17 12:57:41;;;;;;;26.05;2.92;;;;;;;23.11;53.75;99892.28;7311291;19;129450;-40
2022/01/17 13:00:27;;;;;;;14.07;1.65;;;;;;;23.04;53.98;99870.22;7310004;19;130336;-39
2022/01/17 13:02:55;;;;;;;21.52;2.47;;;;;;;23.03;53.65;99868.56;7309574;19;131222;-40
2022/01/17 13:05:23;;;;;;;8.30;1.50;;;;;;;23.03;53.72;99869.41;7309452;19;129737;-40
2022/01/17 13:07:48;;;;;;;13.88;1.80;;;;;;;23.01;53.53;99871.34;7311762;19;129508;-39
2022/01/17 13:10:14;;;;;;;13.98;1.50;;;;;;;23.03;53.74;99881.69;7311429;19;129792;-41
2022/01/17 13:12:41;;;;;;;22.95;2.67;;;;;;;23.10;53.49;99880.16;7309136;19;159142;-39
2022/01/17 13:15:08;;;;;;;6.50;0.90;;;;;;;23.03;53.93;99885.13;7307279;19;130912;-39
2022/01/17 13:17:35;;;;;;;11.23;1.35;;;;;;;23.19;53.35;99897.63;7311156;19;129870;-39
2022/01/17 13:20:00;;;;;;;28.30;3.30;;;;;;;23.19;53.65;99895.84;7310593;19;129263;-38
2022/01/17 13:22:26;;;;;;;14.93;1.80;;;;;;;23.24;53.61;99908.53;7311468;19;129937;-39
2022/01/17 13:25:02;;;;;;;11.60;1.60;;;;;;;23.33;52.56;99894.59;7307053;19;131428;-39
2022/01/17 13:27:33;;;;;;;18.23;2.13;;;;;;;23.34;52.67;99896.25;7310375;19;129589;-38
2022/01/17 13:30:05;;;;;;;20.35;2.80;;;;;;;23.32;53.14;99885.06;7311894;19;129297;-38
2022/01/17 13:32:36;;;;;;;15.35;2.03;;;;;;;23.26;52.85;99898.72;7308250;19;129774;-39
2022/01/17 13:35:13;;;;;;;7.25;1.20;;;;;;;23.25;53.47;99886.59;7306991;19;129659;-40
2022/01/17 13:37:40;;;;;;;21.85;2.58;;;;;;;23.21;53.05;99887.84;7311003;19;129133;-39
2022/01/17 13:40:35;;;;;;;9.13;1.10;;;;;;;23.16;53.63;99900.56;7311485;19;130438;-39
2022/01/17 13:43:02;;;;;;;42.47;5.13;;;;;;;23.10;53.37;99894.09;7305561;19;129220;-39
2022/01/17 13:45:55;;;;;;;22.50;2.70;;;;;;;23.12;53.37;99899.19;7309359;19;130326;-39
2022/01/17 13:48:25;;;;;;;19.83;2.47;;;;;;;23.20;53.14;99917.69;7309619;19;129669;-40
2022/01/17 13:50:57;;;;;;;17.13;2.20;;;;;;;23.26;53.67;99917.09;7309420;19;130312;-40
2022/01/17 13:53:25;;;;;;;29.38;3.58;;;;;;;23.30;52.89;99908.03;7307156;19;131252;-39
2022/01/17 13:55:54;;;;;;;15.05;2.00;;;;;;;23.28;53.25;99909.94;7309139;19;129828;-39
2022/01/17 13:58:19;;;;;;;16.35;1.98;;;;;;;23.24;53.44;99908.53;7310252;19;129993;-40
2022/01/17 14:00:55;;;;;;;19.55;2.15;;;;;;;23.24;53.44;99919.03;7309971;19;129270;-39
2022/01/17 14:03:24;;;;;;;18.25;2.22;;;;;;;23.22;53.15;99926.25;7308388;19;130359;-39
2022/01/17 14:05:52;;;;;;;13.60;1.80;;;;;;;23.12;53.33;99939.34;7308834;19;130410;-39
2022/01/17 14:08:26;;;;;;;15.10;1.85;;;;;;;23.13;54.07;99948.06;7309887;19;129586;-39
2022/01/17 14:11:13;;;;;;;21.05;2.35;;;;;;;23.07;53.52;99940.75;7314392;19;131227;-40
2022/01/17 14:13:47;;;;;;;13.80;1.67;;;;;;;23.10;53.58;99954.44;7314963;19;130200;-40
2022/01/17 14:16:14;;;;;;;24.38;3.05;;;;;;;23.09;53.80;99954.53;7312361;19;130099;-40
2022/01/17 14:18:40;;;;;;;;;;;;;;;23.04;53.87;99948.88;7317231;19;129309;-39
2022/01/17 14:21:05;;;;;;;23.65;2.63;;;;;;;23.15;53.75;99954.00;7314948;19;128886;-39
2022/01/17 14:23:35;;;;;;;18.45;2.05;;;;;;;23.14;53.87;99971.53;7313878;19;158553;-41
2022/01/17 14:26:01;;;;;;;17.48;1.88;;;;;;;23.20;53.17;99964.91;7314603;19;131327;-39
2022/01/17 14:28:33;;;;;;;18.83;2.13;;;;;;;23.17;53.43;99957.31;7315800;19;129292;-38
2022/01/17 14:30:58;;;;;;;28.38;2.97;;;;;;;23.09;54.01;99958.00;7314289;19;129338;-39
2022/01/17 14:33:25;;;;;;;13.18;1.75;;;;;;;23.18;53.34;99979.94;7313010;19;130403;-39
2022/01/17 14:36:13;;;;;;;16.80;1.90;;;;;;;23.08;53.92;99981.75;7315470;19;130458;-39
2022/01/17 14:38:46;;;;;;;31.10;3.78;;;;;;;23.09;54.12;99999.97;7313912;19;129076;-38
2022/01/17 14:41:20;;;;;;;26.48;2.80;;;;;;;23.06;53.95;100004.66;7314381;19;131239;-40
2022/01/17 14:43:48;;;;;;;17.40;1.85;;;;;;;23.00;53.73;100007.84;7314333;19;130666;-40
2022/01/17 14:46:14;;;;;;;19.27;2.25;;;;;;;23.02;54.39;100017.22;7313786;19;129770;-40
2022/01/17 14:48:40;;;;;;;17.20;2.05;;;;;;;23.00;54.20;100032.28;7314146;19;129405;-39
2022/01/17 14:51:10;;;;;;;;;;;;;;;22.94;54.27;100069.53;7315220;19;129435;-38
2022/01/17 14:53:35;;;;;;;18.67;2.10;;;;;;;22.99;54.03;100077.00;7313534;19;130662;-38
2022/01/17 15:01:40;;;;;;;17.13;1.85;;;;;;;23.11;53.55;100109.97;7311216;19;128972;-42
2022/01/17 15:04:05;;;;;;;22.02;2.88;;;;;;;22.99;53.64;100106.66;7310833;19;130382;-44
2022/01/17 15:06:31;;;;;;;16.75;2.08;;;;;;;23.05;53.78;100105.28;7312368;19;158482;-40
2022/01/17 15:08:56;;;;;;;20.10;2.40;;;;;;;23.03;53.70;100101.97;7314033;19;154731;-41
2022/01/17 15:11:22;;;;;;;14.50;1.80;;;;;;;23.03;54.27;100120.31;7315576;19;129909;-38
2022/01/17 15:13:47;;;;;;;22.63;2.58;;;;;;;22.98;54.22;100112.88;7312375;19;130254;-40
2022/01/17 15:16:12;;;;;;;25.73;2.80;;;;;;;23.01;54.50;100119.63;7314546;19;130379;-39
2022/01/17 15:18:37;;;;;;;26.52;3.00;;;;;;;22.99;54.00;100113.72;7312020;19;154786;-39
2022/01/17 15:21:03;;;;;;;29.75;3.35;;;;;;;22.97;54.66;100120.88;7309084;19;154458;-40
2022/01/17 15:23:28;;;;;;;35.20;3.95;;;;;;;23.06;53.67;100130.53;7313350;19;130299;-39
2022/01/17 15:25:54;;;;;;;24.42;2.90;;;;;;;23.11;54.20;100134.41;7309929;19;158798;-39
2022/01/17 15:28:19;;;;;;;24.15;2.83;;;;;;;23.15;54.04;100150.72;7315461;19;129077;-41
2022/01/17 15:30:53;;;;;;;18.65;1.92;;;;;;;23.15;53.78;100140.22;7313895;19;129876;-40
2022/01/17 15:33:18;;;;;;;38.38;4.43;;;;;;;23.07;54.25;100132.22;7311212;19;130255;-40
2022/01/17 15:35:44;;;;;;;24.23;2.72;;;;;;;23.04;53.79;100137.72;7308640;19;158854;-42
2022/01/17 15:38:12;;;;;;;16.42;1.85;;;;;;;23.13;53.78;100163.97;7313307;19;154499;-39
2022/01/17 15:40:37;;;;;;;13.25;1.55;;;;;;;23.12;54.06;100183.28;7313784;19;129363;-40
2022/01/17 15:43:04;;;;;;;18.30;1.92;;;;;;;23.15;53.62;100187.44;7310965;19;137309;-39
2022/01/17 15:45:29;;;;;;;25.17;2.97;;;;;;;23.10;54.18;100194.88;7313430;19;130631;-40
2022/01/17 15:47:54;;;;;;;18.65;2.50;;;;;;;23.05;53.91;100207.56;7312619;19;154565;-40
2022/01/17 15:50:19;;;;;;;15.88;1.85;;;;;;;22.93;54.35;100212.09;7312645;19;154555;-39
2022/01/17 15:52:45;;;;;;;11.68;1.77;;;;;;;22.81;54.84;100200.03;7310783;19;158455;-39
2022/01/17 15:55:10;;;;;;;19.83;2.27;;;;;;;22.82;54.90;100211.38;7309422;19;158338;-39
2022/01/17 15:57:36;;;;;;;19.60;2.50;;;;;;;22.78;54.74;100215.19;7313892;19;129667;-39
2022/01/17 16:00:03;;;;;;;6.47;0.82;;;;;;;22.72;55.51;100221.81;7313198;19;129402;-40
2022/01/17 16:02:28;;;;;;;22.08;2.70;;;;;;;22.71;55.20;100227.19;7312728;19;129950;-40
2022/01/17 16:04:53;;;;;;;20.27;2.47;;;;;;;22.69;55.42;100239.59;7308096;19;133320;-39
2022/01/17 16:07:19;;;;;;;21.27;2.53;;;;;;;22.68;54.80;100256.25;7310116;19;154651;-40
2022/01/17 16:09:44;;;;;;;18.83;2.05;;;;;;;22.74;55.16;100268.88;7312339;19;152593;-41
2022/01/17 16:12:10;;;;;;;18.65;2.33;;;;;;;22.73;55.21;100267.19;7312063;19;130234;-41
2022/01/17 16:14:36;;;;;;;3.20;0.60;;;;;;;22.67;55.37;100276.44;7310396;19;130710;-39
2022/01/17 16:17:02;;;;;;;23.10;2.63;;;;;;;22.73;55.31;100288.16;7311605;19;129503;-38
2022/01/17 16:19:27;;;;;;;16.42;2.08;;;;;;;22.76;54.87;100291.34;7312719;19;129572;-39
2022/01/17 16:21:53;;;;;;;19.90;2.42;;;;;;;22.75;54.89;100296.72;7311935;19;130692;-41
2022/01/17 16:24:18;;;;;;;34.72;4.07;;;;;;;22.75;55.14;100308.06;7308408;19;130482;-39
2022/01/17 16:26:43;;;;;;;15.68;1.80;;;;;;;22.81;55.05;100319.78;7310579;19;154587;-40
2022/01/17 16:29:09;;;;;;;28.17;3.55;;;;;;;22.81;54.83;100314.56;7309386;19;154762;-38
2022/01/17 16:31:34;;;;;;;19.48;2.33;;;;;;;22.82;55.11;100327.56;7310214;19;129122;-39
2022/01/17 16:34:01;;;;;;;28.35;3.38;;;;;;;22.83;54.89;100342.31;7307799;19;129810;-39
2022/01/17 16:36:29;;;;;;;23.27;2.90;;;;;;;22.69;55.11;100320.84;7307586;19;128878;-41
2022/01/17 16:38:56;;;;;;;19.08;2.30;;;;;;;22.82;55.08;100338.06;7310462;19;137399;-38
2022/01/17 16:41:21;;;;;;;22.88;2.83;;;;;;;22.80;54.75;100339.97;7309665;19;129290;-39
2022/01/17 16:43:46;;;;;;;18.83;2.17;;;;;;;22.77;54.84;100344.63;7308043;19;130379;-38
2022/01/17 16:46:13;;;;;;;23.35;2.72;;;;;;;22.75;54.84;100357.88;7310821;19;129593;-41
2022/01/17 16:48:40;;;;;;;14.52;1.63;;;;;;;22.71;55.22;100360.88;7311729;19;129195;-39
2022/01/17 16:51:07;;;;;;;9.57;1.40;;;;;;;22.65;54.94;100377.94;7311330;19;130214;-38
2022/01/17 16:53:33;;;;;;;23.05;2.53;;;;;;;22.65;54.86;100377.09;7310122;19;130856;-39
2022/01/17 16:55:58;;;;;;;25.10;3.08;;;;;;;22.65;55.21;100392.81;7311435;19;129296;-40
2022/01/17 16:58:26;;;;;;;26.92;3.30;;;;;;;22.65;55.43;100398.91;7310260;19;130208;-38
2022/01/17 17:00:51;;;;;;;18.52;2.33;;;;;;;22.59;55.44;100390.72;7311072;19;130249;-39
2022/01/17 17:03:17;;;;;;;18.45;2.22;;;;;;;22.62;54.71;100401.78;7310400;19;130349;-40
2022/01/17 17:05:42;;;;;;;10.75;1.48;;;;;;;22.71;55.35;100413.31;7308876;19;154496;-40
2022/01/17 17:08:08;;;;;;;18.00;1.90;;;;;;;22.73;54.97;100419.22;7308845;19;155191;-41
2022/01/17 17:10:35;;;;;;;41.00;5.22;;;;;;;22.74;55.07;100429.59;7308987;19;129867;-38
2022/01/17 17:13:00;;;;;;;17.60;2.15;;;;;;;22.81;54.78;100448.25;7309341;19;130506;-41
2022/01/17 17:15:25;;;;;;;23.25;3.05;;;;;;;22.69;54.70;100441.44;7308396;19;130416;-40
2022/01/17 17:17:51;;;;;;;18.77;2.22;;;;;;;22.82;54.79;100458.66;7310100;19;131611;-39
2022/01/17 17:20:18;;;;;;;23.38;2.63;;;;;;;22.83;54.72;100459.47;7311278;19;131082;-38
2022/01/17 17:22:43;;;;;;;;;;;;;;;22.73;55.27;100461.19;7308169;19;129841;-39
2022/01/17 17:25:09;;;;;;;18.80;2.23;;;;;;;22.74;54.90;100476.78;7310022;19;155083;-38
2022/01/17 17:27:35;;;;;;;13.97;1.77;;;;;;;22.74;54.70;100491.69;7310606;19;129074;-41
2022/01/17 17:30:01;;;;;;;21.90;2.70;;;;;;;22.69;54.71;100484.19;7309849;19;130148;-39
2022/01/17 17:32:27;;;;;;;19.08;2.22;;;;;;;22.69;55.02;100489.44;7310557;19;130275;-39
2022/01/17 17:34:53;;;;;;;21.60;2.60;;;;;;;22.66;55.55;100494.13;7304726;19;149885;-40
2022/01/17 17:37:19;;;;;;;18.75;2.22;;;;;;;22.67;55.58;100506.25;7310916;19;129552;-39
2022/01/17 17:39:45;;;;;;;;;;;;;;;22.63;55.80;100499.59;7310853;19;129104;-41
2022/01/17 17:42:11;;;;;;;17.95;2.03;;;;;;;22.69;55.49;100509.59;7309130;19;130264;-40
2022/01/17 17:44:38;;;;;;;10.13;1.55;;;;;;;22.71;54.84;100513.72;7312248;19;129396;-39
2022/01/17 17:47:05;;;;;;;20.77;2.42;;;;;;;22.72;54.81;100512.78;7315838;19;130943;-39
2022/01/17 17:49:32;;;;;;;24.40;2.63;;;;;;;22.80;54.60;100514.78;7318115;19;131488;-40
2022/01/17 17:51:57;;;;;;;24.38;3.10;;;;;;;22.82;54.83;100505.84;7317348;19;130906;-38
2022/01/17 17:54:22;;;;;;;17.97;2.23;;;;;;;22.80;55.08;100517.41;7314845;19;154770;-39
2022/01/17 17:56:47;;;;;;;21.42;2.53;;;;;;;22.82;54.33;100521.59;7314910;19;154981;-41
2022/01/17 17:59:14;;;;;;;19.73;2.63;;;;;;;22.87;54.93;100531.69;7314332;19;159016;-40
2022/01/17 18:01:39;;;;;;;11.52;1.52;;;;;;;22.85;54.62;100530.97;7315786;19;131092;-40
2022/01/17 18:04:08;;;;;;;33.92;4.25;;;;;;;22.86;54.90;100533.47;7312437;19;131939;-39
2022/01/17 18:06:34;;;;;;;17.10;1.88;;;;;;;22.79;54.55;100531.47;7316605;19;129653;-38
2022/01/17 18:09:00;;;;;;;24.23;2.97;;;;;;;22.77;55.09;100538.63;7315538;19;129558;-39
2022/01/17 18:11:26;;;;;;;17.83;2.10;;;;;;;22.74;55.23;100544.13;7316097;19;132708;-39
2022/01/17 18:13:51;;;;;;;19.00;2.50;;;;;;;22.72;54.90;100540.78;7314170;19;129591;-40
2022/01/17 18:16:17;;;;;;;16.23;1.90;;;;;;;22.68;54.79;100555.94;7314712;19;129027;-39
2022/01/17 18:18:44;;;;;;;14.32;1.88;;;;;;;22.64;55.19;100564.16;7313352;19;159188;-38
2022/01/17 18:21:09;;;;;;;21.30;2.50;;;;;;;22.67;54.85;100566.53;7315651;19;130571;-38
2022/01/17 18:23:35;;;;;;;14.10;1.73;;;;;;;22.67;55.43;100574.41;7313366;19;130815;-40
2022/01/17 18:26:00;;;;;;;15.65;1.85;;;;;;;22.72;54.67;100572.25;7313799;19;154265;-39
2022/01/17 18:28:25;;;;;;;25.85;3.25;;;;;;;22.74;55.29;100581.63;7313901;19;137402;-41
2022/01/17 18:30:50;;;;;;;23.92;3.10;;;;;;;22.80;55.21;100585.56;7314967;19;151728;-38
2022/01/17 18:33:18;;;;;;;29.17;3.67;;;;;;;22.81;54.75;100587.22;7313987;19;135692;-39
2022/01/17 18:35:47;;;;;;;19.48;2.20;;;;;;;22.87;54.32;100586.75;7312580;19;129705;-41
2022/01/17 18:38:13;;;;;;;12.30;1.88;;;;;;;22.81;55.13;100587.22;7315615;19;129554;-39
2022/01/17 18:40:38;;;;;;;20.27;2.17;;;;;;;22.86;54.91;100588.53;7315426;19;129668;-39
2022/01/17 18:43:04;;;;;;;16.35;2.00;;;;;;;22.82;54.44;100605.47;7313247;19;129233;-39
2022/01/17 18:45:30;;;;;;;21.23;2.35;;;;;;;22.86;54.43;100601.63;7314962;19;129196;-39
2022/01/17 18:47:55;;;;;;;17.20;2.40;;;;;;;22.69;52.90;100606.59;7315365;19;130358;-39
2022/01/17 18:50:21;;;;;;;30.33;4.03;;;;;;;22.68;51.95;100613.59;7314542;19;130280;-39
2022/01/17 18:52:52;;;;;;;46.78;5.22;;;;;;;22.71;52.79;100620.41;7313000;19;129922;-40
2022/01/17 18:55:17;;;;;;;25.95;3.42;;;;;;;22.69;53.19;100628.38;7312544;19;129085;-40
2022/01/17 18:57:45;;;;;;;22.08;2.65;;;;;;;22.69;53.99;100635.41;7313682;19;159429;-39
2022/01/17 19:00:11;;;;;;;19.63;2.72;;;;;;;22.62;54.04;100634.22;7313376;19;130811;-40
2022/01/17 19:02:36;;;;;;;31.50;4.07;;;;;;;22.65;54.03;100628.72;7311210;19;129103;-40
2022/01/17 19:05:01;;;;;;;17.02;2.25;;;;;;;22.59;54.29;100624.81;7311283;19;129298;-39
2022/01/17 19:07:27;;;;;;;20.40;3.03;;;;;;;22.74;53.66;100649.00;7312668;19;159843;-39
2022/01/17 19:09:53;;;;;;;18.50;2.60;;;;;;;22.68;54.20;100644.22;7313167;19;157142;-41
2022/01/17 19:12:19;;;;;;;14.80;2.28;;;;;;;22.71;53.93;100644.81;7314648;19;129296;-40
2022/01/17 19:14:44;;;;;;;20.42;2.47;;;;;;;22.80;53.77;100653.75;7310612;19;129014;-42
2022/01/17 19:17:11;;;;;;;23.50;2.92;;;;;;;22.76;53.59;100647.06;7310510;19;159006;-41
2022/01/17 19:20:06;;;;;;;20.95;2.75;;;;;;;22.83;54.20;100659.56;7312676;19;131233;-41
2022/01/17 19:22:29;;;;;;;34.30;4.47;;;;;;;22.90;53.36;100666.00;7312026;19;129107;-39
2022/01/17 19:24:55;;;;;;;27.98;3.60;;;;;;;22.87;53.46;100668.84;7309257;19;129316;-41
2022/01/17 19:27:22;;;;;;;9.70;1.90;;;;;;;22.88;53.89;100662.66;7313611;19;129695;-40
2022/01/17 19:29:53;;;;;;;22.05;2.97;;;;;;;22.83;53.87;100654.34;7312370;19;130967;-40
2022/01/17 19:32:21;;;;;;;18.05;2.42;;;;;;;22.88;53.82;100667.06;7314579;19;130756;-41
2022/01/17 19:34:47;;;;;;;20.52;2.78;;;;;;;22.84;53.86;100663.84;7309243;19;130550;-40
2022/01/17 19:37:13;;;;;;;22.80;2.95;;;;;;;22.82;53.96;100671.03;7313761;19;131185;-39
2022/01/17 19:39:39;;;;;;;30.83;3.45;;;;;;;22.80;54.62;100675.56;7312985;19;130338;-40
2022/01/17 19:42:06;;;;;;;18.00;2.42;;;;;;;22.74;54.12;100690.94;7313599;19;129180;-39
2022/01/17 19:44:31;;;;;;;;;;;;;;;22.70;54.49;100699.97;7312201;19;129618;-41
2022/01/17 19:46:56;;;;;;;9.13;1.77;;;;;;;22.69;54.57;100687.84;7311481;19;130501;-39
2022/01/17 19:49:24;;;;;;;29.17;3.53;;;;;;;22.73;54.14;100710.22;7310852;19;158586;-40
2022/01/17 19:51:50;;;;;;;15.95;2.47;;;;;;;22.84;54.54;100712.88;7313659;19;129123;-39
2022/01/17 19:54:15;;;;;;;33.07;4.47;;;;;;;22.73;54.59;100711.06;7310370;19;129655;-39
2022/01/17 19:56:40;;;;;;;15.57;2.13;;;;;;;22.81;54.74;100723.56;7312533;19;158534;-42
2022/01/17 19:59:06;;;;;;;16.05;2.25;;;;;;;22.89;54.49;100732.50;7311340;19;130758;-41
2022/01/17 20:01:31;;;;;;;15.90;2.05;;;;;;;22.92;54.38;100726.19;7313462;19;129238;-39
2022/01/17 20:03:57;;;;;;;27.00;3.57;;;;;;;22.92;54.26;100736.69;7309047;19;128876;-37
2022/01/17 20:06:22;;;;;;;24.70;3.10;;;;;;;22.93;53.98;100748.84;7309418;19;130783;-39
2022/01/17 20:08:48;;;;;;;23.40;3.00;;;;;;;22.92;53.92;100755.03;7312547;19;130616;-40
2022/01/17 20:11:16;;;;;;;16.40;2.17;;;;;;;22.92;54.00;100765.53;7311558;19;142494;-40
2022/01/17 20:13:44;;;;;;;22.50;2.60;;;;;;;22.95;53.79;100774.00;7311593;19;129468;-36
2022/01/17 20:16:11;;;;;;;25.52;3.20;;;;;;;22.94;54.00;100777.56;7308252;19;131210;-39
2022/01/17 20:18:36;;;;;;;24.10;2.67;;;;;;;22.91;53.82;100797.94;7313073;19;129486;-39
2022/01/17 20:21:01;;;;;;;22.13;2.80;;;;;;;22.80;54.06;100785.69;7310928;19;153231;-42
2022/01/17 20:23:27;;;;;;;16.10;2.38;;;;;;;22.83;54.16;100811.66;7310413;19;129157;-40
2022/01/17 20:25:52;;;;;;;21.13;2.75;;;;;;;22.76;54.80;100813.06;7311198;19;158427;-40
2022/01/17 20:28:17;;;;;;;20.00;2.63;;;;;;;22.78;54.85;100812.97;7311605;19;158716;-40
2022/01/17 20:30:43;;;;;;;23.98;2.70;;;;;;;22.80;54.49;100817.16;7313529;19;129580;-38
2022/01/17 20:33:10;;;;;;;13.20;2.15;;;;;;;22.81;54.18;100812.72;7309758;19;130787;-39
2022/01/17 20:35:37;;;;;;;25.13;3.03;;;;;;;22.83;54.80;100816.06;7310323;19;130323;-40
2022/01/17 20:38:02;;;;;;;29.48;3.55;;;;;;;22.87;54.63;100822.75;7311765;19;130118;-40
2022/01/17 20:40:27;;;;;;;14.35;2.08;;;;;;;22.88;54.05;100816.53;7311876;19;130119;-40
2022/01/17 20:42:53;;;;;;;24.35;2.97;;;;;;;22.90;54.19;100814.66;7309216;19;154018;-40
2022/01/17 20:45:20;;;;;;;17.70;2.50;;;;;;;22.89;54.50;100829.53;7310104;19;139467;-40
2022/01/17 20:47:47;;;;;;;20.02;2.45;;;;;;;22.90;54.26;100833.00;7310266;19;131499;-39
2022/01/17 20:50:14;;;;;;;20.38;2.63;;;;;;;22.94;53.69;100837.06;7311187;19;129221;-40
2022/01/17 20:52:40;;;;;;;22.17;2.90;;;;;;;22.81;53.76;100824.03;7310352;19;129114;-41
2022/01/17 20:55:06;;;;;;;23.40;2.80;;;;;;;22.86;54.00;100847.28;7310368;19;129616;-39
2022/01/17 20:57:31;;;;;;;14.73;1.98;;;;;;;22.84;54.52;100857.91;7311044;19;132295;-40
2022/01/17 20:59:56;;;;;;;18.80;2.35;;;;;;;22.72;54.74;100845.75;7311435;19;130160;-42
2022/01/17 21:02:22;;;;;;;30.20;3.93;;;;;;;22.72;54.73;100852.75;7308355;19;154019;-40
2022/01/17 21:04:48;;;;;;;28.23;3.22;;;;;;;22.71;54.93;100845.84;7308427;19;131085;-39
2022/01/17 21:07:13;;;;;;;22.03;2.60;;;;;;;22.66;55.15;100855.84;7309792;19;130411;-40
2022/01/17 21:09:38;;;;;;;8.73;1.70;;;;;;;;;;7309016;19;155278;-41
2022/01/17 21:12:04;;;;;;;15.57;2.05;;;;;;;22.52;54.75;100838.50;7311123;19;128901;-40
2022/01/17 21:14:29;;;;;;;29.52;3.67;;;;;;;22.57;55.54;100861.78;7306898;19;130228;-39
2022/01/17 21:16:55;;;;;;;19.23;2.40;;;;;;;22.58;54.92;100860.81;7310142;19;129768;-40
2022/01/17 21:19:20;;;;;;;28.80;3.55;;;;;;;22.60;55.09;100857.16;7304375;19;154718;-39
2022/01/17 21:21:46;;;;;;;41.78;4.63;;;;;;;22.53;54.93;100849.84;7309167;19;153492;-40
2022/01/17 21:24:11;;;;;;;29.90;4.07;;;;;;;22.56;55.45;100860.13;7308665;19;130158;-39
2022/01/17 21:26:37;;;;;;;20.17;2.65;;;;;;;22.53;55.20;100862.94;7310326;19;129281;-41
2022/01/17 21:29:02;;;;;;;28.50;3.35;;;;;;;22.48;55.14;100862.41;7308163;19;146200;-39
2022/01/17 21:31:27;;;;;;;31.58;3.80;;;;;;;22.45;55.78;100873.13;7306771;19;135403;-40
2022/01/17 21:33:52;;;;;;;32.85;3.92;;;;;;;22.39;56.12;100876.22;7303473;19;130232;-40
2022/01/17 21:36:18;;;;;;;23.77;2.80;;;;;;;22.32;55.99;100882.84;7302425;19;158650;-40
2022/01/17 21:38:43;;;;;;;23.55;2.83;;;;;;;22.25;55.81;100881.63;7305025;19;155361;-42
2022/01/17 21:41:09;;;;;;;26.90;2.83;;;;;;;22.23;56.78;100889.59;7305190;19;138543;-43
2022/01/17 21:43:36;;;;;;;26.60;2.75;;;;;;;22.15;56.06;100891.13;7303734;19;129538;-39
2022/01/17 21:46:01;;;;;;;35.35;4.18;;;;;;;22.14;56.43;100897.31;7305068;19;130617;-40
2022/01/17 21:48:26;;;;;;;16.88;2.33;;;;;;;22.07;56.86;100909.16;7309433;19;154616;-39
2022/01/17 21:50:52;;;;;;;23.95;3.13;;;;;;;22.07;57.00;100919.63;7309782;19;129477;-40
2022/01/17 21:53:18;;;;;;;19.98;2.45;;;;;;;22.04;57.38;100919.88;7309579;19;130645;-41
2022/01/17 21:55:43;;;;;;;19.08;2.33;;;;;;;22.05;57.29;100922.38;7307525;19;130303;-40
2022/01/17 21:58:08;;;;;;;12.73;1.77;;;;;;;22.04;57.50;100919.88;7309975;19;129505;-40
2022/01/17 22:00:34;;;;;;;17.65;2.13;;;;;;;22.04;57.45;100922.50;7308305;19;141295;-41
2022/01/17 22:02:59;;;;;;;20.08;2.65;;;;;;;22.08;58.38;100921.34;7308630;19;134805;-38
2022/01/17 22:05:24;;;;;;;22.88;2.90;;;;;;;22.10;57.99;100919.44;7309323;19;129468;-41
2022/01/17 22:07:50;;;;;;;16.00;2.28;;;;;;;22.12;58.50;100917.53;7308394;19;129126;-39
2022/01/17 22:10:15;;;;;;;26.70;3.42;;;;;;;22.16;58.36;100919.00;7309668;19;129726;-40
2022/01/17 22:12:41;;;;;;;18.77;2.30;;;;;;;22.21;58.20;100927.34;7305864;19;158315;-39
2022/01/17 22:15:07;;;;;;;19.25;2.25;;;;;;;22.19;58.83;100924.00;7308332;19;129807;-38
2022/01/17 22:17:33;;;;;;;14.38;2.17;;;;;;;22.26;58.19;100925.25;7308574;19;128995;-41
2022/01/17 22:19:59;;;;;;;18.37;2.27;;;;;;;22.20;58.45;100912.56;7308461;19;129168;-40
2022/01/17 22:22:26;;;;;;;21.73;3.00;;;;;;;22.26;58.50;100925.25;7307948;19;130463;-40
2022/01/17 22:24:51;;;;;;;22.40;2.95;;;;;;;22.20;59.13;100926.50;7305861;19;132442;-41
2022/01/17 22:27:16;;;;;;;17.48;2.42;;;;;;;22.19;59.17;100924.84;7306733;19;155775;-40
2022/01/17 22:29:42;;;;;;;14.27;1.95;;;;;;;22.15;58.55;100922.56;7308833;19;154397;-39
2022/01/17 22:32:09;;;;;;;27.77;3.83;;;;;;;22.13;59.43;100927.06;7315217;19;130796;-40
2022/01/17 22:34:35;;;;;;;7.82;1.35;;;;;;;22.08;59.00;100935.25;7313019;19;131219;-38
2022/01/17 22:37:01;;;;;;;22.17;2.63;;;;;;;22.09;59.09;100930.84;7315543;19;129505;-39
2022/01/17 22:39:26;;;;;;;10.70;1.70;;;;;;;22.07;59.64;100938.81;7316935;19;129573;-39
2022/01/17 22:41:51;;;;;;;21.97;2.83;;;;;;;22.07;59.50;100936.19;7314217;19;159428;-40
2022/01/17 22:44:17;;;;;;;30.75;4.03;;;;;;;22.11;59.01;100936.81;7311368;19;159279;-39
2022/01/17 22:46:44;;;;;;;17.83;2.40;;;;;;;22.10;59.33;100937.78;7316553;19;129153;-39
2022/01/17 22:49:11;;;;;;;27.98;3.35;;;;;;;22.02;59.74;100927.00;7314483;19;129195;-43
2022/01/17 22:51:37;;;;;;;;;;;;;;;21.98;60.58;100931.63;7316446;19;130136;-40
2022/01/17 22:54:02;;;;;;;20.25;2.58;;;;;;;22.07;59.49;100932.72;7312090;19;129662;-40
2022/01/17 22:56:28;;;;;;;16.38;2.17;;;;;;;21.97;59.44;100919.47;7313416;19;129599;-39
2022/01/17 22:58:53;;;;;;;19.52;2.45;;;;;;;21.95;59.93;100935.28;7314391;19;128997;-38
2022/01/17 23:01:18;;;;;;;35.28;4.57;;;;;;;21.86;59.26;100933.34;7311452;19;146298;-40
2022/01/17 23:03:44;;;;;;;15.07;1.92;;;;;;;21.86;58.48;100932.50;7310037;19;158846;-42
2022/01/17 23:06:10;;;;;;;21.92;2.55;;;;;;;21.91;57.23;100936.44;7311968;19;154840;-42
2022/01/17 23:08:35;;;;;;;20.10;2.73;;;;;;;22.01;56.92;100943.66;7312662;19;129380;-39
2022/01/17 23:11:00;;;;;;;27.50;2.90;;;;;;;22.10;56.93;100946.44;7312627;19;158786;-40
2022/01/17 23:13:25;;;;;;;31.50;4.20;;;;;;;22.20;56.13;100951.84;7309538;19;155763;-38
2022/01/17 23:15:52;;;;;;;40.55;4.63;;;;;;;22.32;55.42;100946.59;7309857;19;154784;-40
2022/01/17 23:18:29;;;;;;;24.52;3.22;;;;;;;22.37;55.75;100943.63;7312340;19;130548;-39
2022/01/17 23:20:54;;;;;;;12.88;1.80;;;;;;;22.54;55.55;100951.97;7312365;19;131156;-42
2022/01/17 23:23:19;;;;;;;29.42;3.70;;;;;;;22.66;55.17;100950.22;7307081;19;158032;-39
2022/01/17 23:25:45;;;;;;;22.05;2.65;;;;;;;22.72;54.82;100955.84;7308775;19;154668;-39
2022/01/17 23:28:10;;;;;;;26.65;3.13;;;;;;;22.76;54.45;100956.44;7309973;19;154302;-40
2022/01/17 23:30:53;;;;;;;23.67;2.77;;;;;;;22.69;54.57;100955.25;7310526;19;158720;-39
2022/01/17 23:36:17;;;;;;;17.50;2.10;;;;;;;22.58;54.75;100957.81;7309603;19;129460;-39
2022/01/17 23:38:44;;;;;;;18.80;2.63;;;;;;;22.53;55.65;100967.78;7311597;19;154793;-38
2022/01/17 23:41:10;;;;;;;15.02;1.83;;;;;;;22.47;55.01;100963.81;7310518;19;132582;-39